Time;durP1;ratioP1;P1;durP2;ratioP2;P2;SDS_P1;SDS_P2;PMS_P1;PMS_P2;Temp;Humidity;BMP_temperature;BMP_pressure;BME280_temperature;BME280_humidity;BME280_pressure;Samples;Min_cycle;Max_cycle;Signal;HPM_P1;HPM_P2
2024/02/27 00:01:50;;;;;;;;;;;;;;;;;;4182158;28;19974;-57
2024/02/27 00:03:51;;;;;;;;;;;;;;;;;;4182530;28;19921;-57
2024/02/27 00:05:53;;;;;;;;;;;;;;;;;;4182218;28;19921;-57
2024/02/27 00:07:54;;;;;;;;;;;;;;;;;;4182335;28;19971;-57
2024/02/27 00:09:58;;;;;;;;;;;;;;;;;;4182466;28;19974;-56
2024/02/27 00:12:00;;;;;;;;;;;;;;;;;;4164819;28;19928;-57
2024/02/27 00:14:01;;;;;;;;;;;;;;;;;;4182186;28;20369;-57
2024/02/27 00:16:03;;;;;;;;;;;;;;;;;;4182128;28;19924;-57
2024/02/27 00:18:04;;;;;;;;;;;;;;;;;;4182101;28;20054;-57
2024/02/27 00:20:07;;;;;;;;;;;;;;;;;;4182195;28;20415;-57
2024/02/27 00:22:08;;;;;;;;;;;;;;;;;;4182066;28;19928;-57
2024/02/27 00:24:10;;;;;;;;;;;;;;;;;;4181991;28;19943;-57
2024/02/27 00:26:11;;;;;;;;;;;;;;;;;;4181917;28;19927;-57
2024/02/27 00:28:13;;;;;;;;;;;;;;;;;;4182018;28;19971;-57
2024/02/27 00:30:14;;;;;;;;;;;;;;;;;;4182171;28;19925;-57
2024/02/27 00:32:16;;;;;;;;;;;;;;;;;;4193604;28;19923;-57
2024/02/27 00:34:17;;;;;;;;;;;;;;;;;;4207958;28;19924;-57
2024/02/27 00:36:19;;;;;;;;;;;;;;;;;;4197174;28;19951;-55
2024/02/27 00:38:20;;;;;;;;;;;;;;;;;;4196798;28;19924;-56
2024/02/27 00:40:22;;;;;;;;;;;;;;;;;;4196744;28;19932;-56
2024/02/27 00:42:23;;;;;;;;;;;;;;;;;;4196149;28;19981;-57
2024/02/27 00:44:25;;;;;;;;;;;;;;;;;;4196583;28;20015;-56
2024/02/27 00:46:26;;;;;;;;;;;;;;;;;;4180633;28;19924;-57
2024/02/27 00:48:28;;;;;;;;;;;;;;;;;;4162519;28;19928;-57
2024/02/27 00:50:30;;;;;;;;;;;;;;;;;;4180468;28;19970;-57
2024/02/27 00:52:31;;;;;;;;;;;;;;;;;;4180773;28;19967;-57
2024/02/27 00:54:33;;;;;;;;;;;;;;;;;;4181633;28;19927;-57
2024/02/27 00:56:34;;;;;;;;;;;;;;;;;;4181963;28;19928;-56
2024/02/27 00:58:36;;;;;;;;;;;;;;;;;;4181445;28;19921;-57
2024/02/27 01:00:37;;;;;;;;;;;;;;;;;;4181577;28;19925;-57
2024/02/27 01:02:39;;;;;;;;;;;;;;;;;;4181181;28;20265;-57
2024/02/27 01:04:40;;;;;;;;;;;;;;;;;;4181476;28;19990;-57
2024/02/27 01:06:42;;;;;;;;;;;;;;;;;;4181314;28;19920;-57
2024/02/27 01:08:43;;;;;;;;;;;;;;;;;;4181606;28;19964;-57
2024/02/27 01:10:45;;;;;;;;;;;;;;;;;;4181482;28;19943;-56
2024/02/27 01:12:46;;;;;;;;;;;;;;;;;;4180824;28;19948;-57
2024/02/27 01:14:48;;;;;;;;;;;;;;;;;;4181252;28;19924;-57
2024/02/27 01:16:49;;;;;;;;;;;;;;;;;;4163253;28;20390;-57
2024/02/27 01:18:51;;;;;;;;;;;;;;;;;;4193047;28;19931;-57
2024/02/27 01:20:52;;;;;;;;;;;;;;;;;;4181297;28;19924;-57
2024/02/27 01:22:54;;;;;;;;;;;;;;;;;;4188905;28;19924;-57
2024/02/27 01:24:55;;;;;;;;;;;;;;;;;;4184765;28;20400;-57
2024/02/27 01:26:57;;;;;;;;;;;;;;;;;;4181343;28;19920;-57
2024/02/27 01:28:58;;;;;;;;;;;;;;;;;;4200596;28;19985;-56
2024/02/27 01:31:00;;;;;;;;;;;;;;;;;;4214471;28;19920;-57
2024/02/27 01:33:01;;;;;;;;;;;;;;;;;;4214432;28;19920;-57
2024/02/27 01:35:03;;;;;;;;;;;;;;;;;;4214322;28;19920;-57
2024/02/27 01:37:05;;;;;;;;;;;;;;;;;;4214353;28;19928;-56
2024/02/27 01:39:08;;;;;;;;;;;;;;;;;;4214369;28;19927;-57
2024/02/27 01:41:09;;;;;;;;;;;;;;;;;;4205614;28;19924;-57
2024/02/27 01:43:11;;;;;;;;;;;;;;;;;;4180944;28;20351;-58
2024/02/27 01:45:14;;;;;;;;;;;;;;;;;;4180662;28;19928;-57
2024/02/27 01:47:17;;;;;;;;;;;;;;;;;;4163320;28;20011;-58
2024/02/27 01:49:18;;;;;;;;;;;;;;;;;;4181276;28;19920;-56
2024/02/27 01:51:20;;;;;;;;;;;;;;;;;;4180863;28;20412;-58
2024/02/27 01:53:22;;;;;;;;;;;;;;;;;;4180633;28;20377;-57
2024/02/27 01:55:23;;;;;;;;;;;;;;;;;;4180823;28;19921;-58
2024/02/27 01:57:24;;;;;;;;;;;;;;;;;;4180769;28;19921;-58
2024/02/27 01:59:26;;;;;;;;;;;;;;;;;;4180447;28;19932;-57
2024/02/27 02:01:28;;;;;;;;;;;;;;;;;;4181242;28;19951;-58
2024/02/27 02:03:30;;;;;;;;;;;;;;;;;;4185877;22;19927;-58
2024/02/27 02:05:31;;;;;;;;;;;;;;;;;;4213967;28;19924;-58
2024/02/27 02:07:34;;;;;;;;;;;;;;;;;;4214170;28;19928;-58
2024/02/27 02:09:36;;;;;;;;;;;;;;;;;;4214136;28;19960;-57
2024/02/27 02:11:37;;;;;;;;;;;;;;;;;;4214004;28;19973;-57
2024/02/27 02:13:39;;;;;;;;;;;;;;;;;;4213974;28;19943;-57
2024/02/27 02:15:41;;;;;;;;;;;;;;;;;;4196458;28;19924;-58
2024/02/27 02:17:42;;;;;;;;;;;;;;;;;;4214220;28;19934;-57
2024/02/27 02:19:44;;;;;;;;;;;;;;;;;;4214349;28;20232;-58
2024/02/27 02:21:45;;;;;;;;;;;;;;;;;;4196092;28;19921;-58
2024/02/27 02:23:47;;;;;;;;;;;;;;;;;;4214027;28;19928;-58
2024/02/27 02:25:49;;;;;;;;;;;;;;;;;;4217252;28;19927;-57
2024/02/27 02:27:50;;;;;;;;;;;;;;;;;;4217061;28;19920;-56
2024/02/27 02:29:51;;;;;;;;;;;;;;;;;;4217213;28;19974;-57
2024/02/27 02:31:53;;;;;;;;;;;;;;;;;;4217018;28;19920;-57
2024/02/27 02:33:54;;;;;;;;;;;;;;;;;;4217124;28;19969;-57
2024/02/27 02:35:56;;;;;;;;;;;;;;;;;;4216042;28;19923;-57
2024/02/27 02:37:58;;;;;;;;;;;;;;;;;;4215735;28;19969;-57
2024/02/27 02:40:01;;;;;;;;;;;;;;;;;;4198795;28;19927;-56
2024/02/27 02:42:02;;;;;;;;;;;;;;;;;;4206003;28;19920;-57
2024/02/27 02:44:05;;;;;;;;;;;;;;;;;;4202047;28;20346;-57
2024/02/27 02:46:06;;;;;;;;;;;;;;;;;;4213964;28;20464;-58
2024/02/27 02:48:08;;;;;;;;;;;;;;;;;;4215879;28;19920;-57
2024/02/27 02:50:11;;;;;;;;;;;;;;;;;;4209605;28;20283;-57
2024/02/27 02:52:13;;;;;;;;;;;;;;;;;;4209165;28;19931;-57
2024/02/27 02:54:14;;;;;;;;;;;;;;;;;;4199986;28;20363;-57
2024/02/27 02:56:16;;;;;;;;;;;;;;;;;;4199973;28;20557;-56
2024/02/27 02:58:17;;;;;;;;;;;;;;;;;;4199856;28;19920;-57
2024/02/27 03:00:19;;;;;;;;;;;;;;;;;;4210468;28;19923;-57
2024/02/27 03:02:20;;;;;;;;;;;;;;;;;;4216640;28;19959;-57
2024/02/27 03:04:22;;;;;;;;;;;;;;;;;;4216411;28;20360;-57
2024/02/27 03:06:23;;;;;;;;;;;;;;;;;;4198674;28;19920;-58
2024/02/27 03:08:25;;;;;;;;;;;;;;;;;;4216453;28;19920;-57
2024/02/27 03:10:27;;;;;;;;;;;;;;;;;;4216702;28;20421;-58
2024/02/27 03:12:28;;;;;;;;;;;;;;;;;;4215330;28;19920;-56
2024/02/27 03:14:29;;;;;;;;;;;;;;;;;;4199024;28;19920;-58
2024/02/27 03:16:31;;;;;;;;;;;;;;;;;;4199835;28;19982;-57
2024/02/27 03:18:32;;;;;;;;;;;;;;;;;;4181976;28;19921;-57
2024/02/27 03:20:34;;;;;;;;;;;;;;;;;;4199848;28;19924;-57
2024/02/27 03:22:36;;;;;;;;;;;;;;;;;;4199704;28;19928;-56
2024/02/27 03:24:38;;;;;;;;;;;;;;;;;;4199836;28;19970;-57
2024/02/27 03:26:42;;;;;;;;;;;;;;;;;;4199592;28;19926;-57
2024/02/27 03:28:44;;;;;;;;;;;;;;;;;;4199562;28;19920;-57
2024/02/27 03:30:45;;;;;;;;;;;;;;;;;;4199564;28;19927;-57
2024/02/27 03:32:47;;;;;;;;;;;;;;;;;;4199420;28;20310;-57
2024/02/27 03:34:48;;;;;;;;;;;;;;;;;;4167126;28;20270;-57
2024/02/27 03:36:50;;;;;;;;;;;;;;;;;;4182799;28;19928;-57
2024/02/27 03:38:51;;;;;;;;;;;;;;;;;;4182937;28;20380;-57
2024/02/27 03:40:53;;;;;;;;;;;;;;;;;;4183310;28;19921;-57
2024/02/27 03:42:54;;;;;;;;;;;;;;;;;;4165161;28;19921;-57
2024/02/27 03:44:56;;;;;;;;;;;;;;;;;;4182851;28;19925;-57
2024/02/27 03:46:57;;;;;;;;;;;;;;;;;;4194022;28;19924;-56
2024/02/27 03:48:59;;;;;;;;;;;;;;;;;;4199481;28;19967;-57
2024/02/27 03:51:00;;;;;;;;;;;;;;;;;;4199195;28;19921;-57
2024/02/27 03:53:02;;;;;;;;;;;;;;;;;;4199247;28;19920;-57
2024/02/27 03:55:04;;;;;;;;;;;;;;;;;;4199207;28;19973;-57
2024/02/27 03:57:06;;;;;;;;;;;;;;;;;;4184060;28;20319;-57
2024/02/27 03:59:08;;;;;;;;;;;;;;;;;;4182815;28;19931;-57
2024/02/27 04:01:09;;;;;;;;;;;;;;;;;;4182330;28;19925;-57
2024/02/27 04:03:10;;;;;;;;;;;;;;;;;;4182330;28;19978;-56
2024/02/27 04:05:12;;;;;;;;;;;;;;;;;;4182570;28;19924;-57
2024/02/27 04:07:14;;;;;;;;;;;;;;;;;;4182590;28;19921;-57
2024/02/27 04:09:15;;;;;;;;;;;;;;;;;;4182578;28;19928;-57
2024/02/27 04:11:17;;;;;;;;;;;;;;;;;;4182305;28;19986;-57
2024/02/27 04:13:19;;;;;;;;;;;;;;;;;;4164650;28;19925;-57
2024/02/27 04:15:21;;;;;;;;;;;;;;;;;;4182150;28;19921;-57
2024/02/27 04:17:23;;;;;;;;;;;;;;;;;;4182258;28;19966;-56
2024/02/27 04:19:25;;;;;;;;;;;;;;;;;;4182159;28;19927;-58
2024/02/27 04:21:26;;;;;;;;;;;;;;;;;;4164393;28;19925;-57
2024/02/27 04:23:28;;;;;;;;;;;;;;;;;;4181940;28;20395;-57
2024/02/27 04:25:29;;;;;;;;;;;;;;;;;;4182135;28;19924;-57
2024/02/27 04:27:31;;;;;;;;;;;;;;;;;;4182003;28;19932;-57
2024/02/27 04:29:32;;;;;;;;;;;;;;;;;;4181948;28;19921;-57
2024/02/27 04:31:34;;;;;;;;;;;;;;;;;;4164235;28;19920;-58
2024/02/27 04:33:36;;;;;;;;;;;;;;;;;;4181833;28;20387;-57
2024/02/27 04:35:37;;;;;;;;;;;;;;;;;;4181805;28;20024;-58
2024/02/27 04:37:39;;;;;;;;;;;;;;;;;;4181886;28;19921;-58
2024/02/27 04:39:40;;;;;;;;;;;;;;;;;;4181874;28;19955;-58
2024/02/27 04:41:42;;;;;;;;;;;;;;;;;;4181802;28;19935;-57
2024/02/27 04:43:43;;;;;;;;;;;;;;;;;;4181697;28;19920;-58
2024/02/27 04:45:45;;;;;;;;;;;;;;;;;;4181479;28;19974;-58
2024/02/27 04:47:46;;;;;;;;;;;;;;;;;;4180861;28;19925;-57
2024/02/27 04:49:48;;;;;;;;;;;;;;;;;;4181610;28;19935;-57
2024/02/27 04:51:49;;;;;;;;;;;;;;;;;;4186483;28;19982;-58
2024/02/27 04:53:52;;;;;;;;;;;;;;;;;;4214945;28;19920;-57
2024/02/27 04:55:53;;;;;;;;;;;;;;;;;;4215172;28;19924;-58
2024/02/27 04:57:54;;;;;;;;;;;;;;;;;;4215095;28;19920;-58
2024/02/27 04:59:56;;;;;;;;;;;;;;;;;;4214919;28;19920;-58
2024/02/27 05:01:59;;;;;;;;;;;;;;;;;;4214784;28;19920;-57
2024/02/27 05:04:01;;;;;;;;;;;;;;;;;;4214581;28;20372;-56
2024/02/27 05:06:02;;;;;;;;;;;;;;;;;;4198958;28;20300;-57
2024/02/27 05:08:04;;;;;;;;;;;;;;;;;;4163398;28;20048;-58
2024/02/27 05:10:05;;;;;;;;;;;;;;;;;;4181625;28;19975;-58
2024/02/27 05:12:07;;;;;;;;;;;;;;;;;;4183711;28;19971;-58
2024/02/27 05:14:08;;;;;;;;;;;;;;;;;;4185421;28;20011;-58
2024/02/27 05:16:10;;;;;;;;;;;;;;;;;;4181225;28;19986;-58
2024/02/27 05:18:11;;;;;;;;;;;;;;;;;;4194213;28;19924;-58
2024/02/27 05:20:13;;;;;;;;;;;;;;;;;;4197783;28;19956;-58
2024/02/27 05:22:15;;;;;;;;;;;;;;;;;;4180011;28;19928;-57
2024/02/27 05:24:16;;;;;;;;;;;;;;;;;;4197820;28;19924;-58
2024/02/27 05:26:18;;;;;;;;;;;;;;;;;;4191999;28;19975;-58
2024/02/27 05:28:19;;;;;;;;;;;;;;;;;;4181342;28;19921;-58
2024/02/27 05:30:21;;;;;;;;;;;;;;;;;;4181402;28;19966;-58
2024/02/27 05:32:22;;;;;;;;;;;;;;;;;;4180971;28;19920;-57
2024/02/27 05:34:24;;;;;;;;;;;;;;;;;;4187472;28;19920;-57
2024/02/27 05:36:25;;;;;;;;;;;;;;;;;;4196111;28;19925;-57
2024/02/27 05:38:27;;;;;;;;;;;;;;;;;;4183852;28;19927;-57
2024/02/27 05:40:29;;;;;;;;;;;;;;;;;;4180943;28;19967;-57
2024/02/27 05:42:31;;;;;;;;;;;;;;;;;;4180985;28;19924;-58
2024/02/27 05:44:32;;;;;;;;;;;;;;;;;;4180745;28;19956;-58
2024/02/27 05:46:34;;;;;;;;;;;;;;;;;;4181099;28;19970;-57
2024/02/27 05:48:36;;;;;;;;;;;;;;;;;;4194208;28;19920;-58
2024/02/27 05:50:37;;;;;;;;;;;;;;;;;;4196328;28;19920;-57
2024/02/27 05:52:38;;;;;;;;;;;;;;;;;;4214344;28;19924;-58
2024/02/27 05:54:40;;;;;;;;;;;;;;;;;;4214237;28;19955;-58
2024/02/27 05:56:41;;;;;;;;;;;;;;;;;;4190326;28;19979;-57
2024/02/27 05:58:43;;;;;;;;;;;;;;;;;;4186062;28;19924;-58
2024/02/27 06:00:45;;;;;;;;;;;;;;;;;;4186944;28;19982;-57
2024/02/27 06:02:47;;;;;;;;;;;;;;;;;;4191081;28;19978;-58
2024/02/27 06:04:48;;;;;;;;;;;;;;;;;;4184097;28;20015;-57
2024/02/27 06:06:50;;;;;;;;;;;;;;;;;;4184082;28;19974;-57
2024/02/27 06:08:51;;;;;;;;;;;;;;;;;;4184044;28;19921;-57
2024/02/27 06:10:53;;;;;;;;;;;;;;;;;;4183292;28;19927;-58
2024/02/27 06:12:54;;;;;;;;;;;;;;;;;;4184037;28;20384;-58
2024/02/27 06:14:56;;;;;;;;;;;;;;;;;;4184022;28;19925;-58
2024/02/27 06:16:57;;;;;;;;;;;;;;;;;;4183514;28;20217;-58
2024/02/27 06:18:59;;;;;;;;;;;;;;;;;;4183807;28;19982;-58
2024/02/27 06:23:21;;;;;;;;;;;;;;;;;;4183761;28;20302;-66
2024/02/27 06:25:22;;;;;;;;;;;;;;;;;;4184000;28;19925;-66
2024/02/27 06:27:23;;;;;;;;;;;;;;;;;;4183441;28;19924;-66
2024/02/27 06:29:25;;;;;;;;;;;;;;;;;;4183855;28;19921;-66
2024/02/27 06:31:27;;;;;;;;;;;;;;;;;;4183356;28;19920;-66
2024/02/27 06:33:28;;;;;;;;;;;;;;;;;;4183772;28;20404;-66
2024/02/27 06:35:30;;;;;;;;;;;;;;;;;;4183202;28;19921;-65
2024/02/27 06:37:31;;;;;;;;;;;;;;;;;;4183935;28;19927;-65
2024/02/27 06:39:33;;;;;;;;;;;;;;;;;;4183807;28;19920;-66
2024/02/27 06:41:34;;;;;;;;;;;;;;;;;;4183698;28;19963;-66
2024/02/27 06:43:36;;;;;;;;;;;;;;;;;;4182365;28;19963;-66
2024/02/27 06:45:37;;;;;;;;;;;;;;;;;;4209023;28;19928;-65
2024/02/27 06:47:40;;;;;;;;;;;;;;;;;;4216942;28;20390;-66
2024/02/27 06:49:42;;;;;;;;;;;;;;;;;;4216986;28;20370;-65
2024/02/27 06:51:45;;;;;;;;;;;;;;;;;;4216884;28;19959;-66
2024/02/27 06:53:46;;;;;;;;;;;;;;;;;;4195362;28;19920;-66
2024/02/27 06:55:48;;;;;;;;;;;;;;;;;;4188842;28;19924;-66
2024/02/27 06:57:49;;;;;;;;;;;;;;;;;;4199989;28;19924;-66
2024/02/27 06:59:51;;;;;;;;;;;;;;;;;;4199975;28;19920;-66
2024/02/27 07:01:53;;;;;;;;;;;;;;;;;;4200028;28;20367;-66
2024/02/27 07:03:54;;;;;;;;;;;;;;;;;;4199655;28;19920;-66
2024/02/27 07:05:57;;;;;;;;;;;;;;;;;;4200038;28;20368;-66
2024/02/27 07:07:59;;;;;;;;;;;;;;;;;;4181878;28;19975;-66
2024/02/27 07:10:00;;;;;;;;;;;;;;;;;;4181264;28;19924;-66
2024/02/27 07:12:02;;;;;;;;;;;;;;;;;;4199654;28;19924;-66
2024/02/27 07:14:03;;;;;;;;;;;;;;;;;;4199588;28;20414;-66
2024/02/27 07:16:05;;;;;;;;;;;;;;;;;;4199700;28;19963;-66
2024/02/27 07:18:06;;;;;;;;;;;;;;;;;;4181842;28;20323;-66
2024/02/27 07:20:09;;;;;;;;;;;;;;;;;;4183217;28;20395;-66
2024/02/27 07:22:11;;;;;;;;;;;;;;;;;;4182946;28;20395;-67
2024/02/27 07:24:12;;;;;;;;;;;;;;;;;;4165222;28;20316;-66
2024/02/27 07:26:14;;;;;;;;;;;;;;;;;;4182949;28;19947;-66
2024/02/27 07:28:16;;;;;;;;;;;;;;;;;;4183184;28;19920;-66
2024/02/27 07:30:26;;;;;;;;;;;;;;;;;;4182989;28;19931;-66
2024/02/27 07:32:28;;;;;;;;;;;;;;;;;;4182861;28;20258;-66
2024/02/27 07:34:29;;;;;;;;;;;;;;;;;;4183089;28;19960;-66
2024/02/27 07:36:31;;;;;;;;;;;;;;;;;;4165074;28;19920;-67
2024/02/27 07:38:32;;;;;;;;;;;;;;;;;;4182836;28;19924;-66
2024/02/27 07:40:34;;;;;;;;;;;;;;;;;;4187647;28;20364;-66
2024/02/27 07:42:35;;;;;;;;;;;;;;;;;;4216251;28;19924;-67
2024/02/27 07:44:37;;;;;;;;;;;;;;;;;;4215735;28;19920;-66
2024/02/27 07:46:38;;;;;;;;;;;;;;;;;;4216109;28;19927;-66
2024/02/27 07:48:40;;;;;;;;;;;;;;;;;;4215754;28;19920;-66
2024/02/27 07:50:41;;;;;;;;;;;;;;;;;;4183347;28;19920;-66
2024/02/27 07:52:43;;;;;;;;;;;;;;;;;;4182854;28;19970;-66
2024/02/27 07:54:45;;;;;;;;;;;;;;;;;;4182599;28;19921;-66
2024/02/27 07:56:46;;;;;;;;;;;;;;;;;;4182537;28;20479;-66
2024/02/27 07:58:48;;;;;;;;;;;;;;;;;;4182565;28;20380;-66
2024/02/27 08:00:49;;;;;;;;;;;;;;;;;;4182499;28;19925;-67
2024/02/27 08:02:51;;;;;;;;;;;;;;;;;;4182449;28;19921;-66
2024/02/27 08:04:53;;;;;;;;;;;;;;;;;;4182624;28;19970;-66
2024/02/27 08:06:54;;;;;;;;;;;;;;;;;;4182421;28;19920;-66
2024/02/27 08:08:56;;;;;;;;;;;;;;;;;;4182204;28;19920;-66
2024/02/27 08:10:57;;;;;;;;;;;;;;;;;;4182239;28;19944;-67
2024/02/27 08:12:59;;;;;;;;;;;;;;;;;;4164568;28;19925;-66
2024/02/27 08:15:00;;;;;;;;;;;;;;;;;;4182109;28;19927;-66
2024/02/27 08:17:02;;;;;;;;;;;;;;;;;;4182417;28;19927;-66
2024/02/27 08:19:06;;;;;;;;;;;;;;;;;;4182162;28;19931;-66
2024/02/27 08:21:08;;;;;;;;;;;;;;;;;;4181811;28;19970;-66
2024/02/27 08:23:10;;;;;;;;;;;;;;;;;;4181558;28;20055;-65
2024/02/27 08:25:11;;;;;;;;;;;;;;;;;;4182242;28;19994;-66
2024/02/27 08:27:13;;;;;;;;;;;;;;;;;;4181967;28;19954;-67
2024/02/27 08:29:14;;;;;;;;;;;;;;;;;;4164302;28;19925;-66
2024/02/27 08:31:16;;;;;;;;;;;;;;;;;;4182257;28;19920;-67
2024/02/27 08:33:17;;;;;;;;;;;;;;;;;;4181910;28;19931;-66
2024/02/27 08:35:20;;;;;;;;;;;;;;;;;;4182076;28;19924;-66
2024/02/27 08:37:23;;;;;;;;;;;;;;;;;;4195354;28;19941;-67
2024/02/27 08:39:25;;;;;;;;;;;;;;;;;;4215739;28;19965;-66
2024/02/27 08:41:27;;;;;;;;;;;;;;;;;;4215113;28;19920;-66
2024/02/27 08:43:29;;;;;;;;;;;;;;;;;;4214915;28;19920;-66
2024/02/27 08:45:33;;;;;;;;;;;;;;;;;;4205378;28;20007;-66
2024/02/27 08:47:35;;;;;;;;;;;;;;;;;;4181647;28;20367;-66
2024/02/27 08:49:36;;;;;;;;;;;;;;;;;;4181897;28;19924;-66
2024/02/27 08:51:38;;;;;;;;;;;;;;;;;;4181680;28;19932;-66
2024/02/27 08:53:39;;;;;;;;;;;;;;;;;;4163781;28;19928;-66
2024/02/27 08:55:41;;;;;;;;;;;;;;;;;;4181735;28;19928;-66
2024/02/27 08:57:43;;;;;;;;;;;;;;;;;;4181510;28;19920;-66
2024/02/27 08:59:46;;;;;;;;;;;;;;;;;;4181571;28;19954;-66
2024/02/27 09:01:48;;;;;;;;;;;;;;;;;;4181494;28;19921;-66
2024/02/27 09:03:49;;;;;;;;;;;;;;;;;;4181243;28;19935;-66
2024/02/27 09:05:51;;;;;;;;;;;;;;;;;;4181680;28;19920;-66
2024/02/27 09:07:53;;;;;;;;;;;;;;;;;;4181266;28;20281;-66
2024/02/27 09:09:54;;;;;;;;;;;;;;;;;;4181213;28;20384;-66
2024/02/27 09:11:57;;;;;;;;;;;;;;;;;;4181409;28;19932;-66
2024/02/27 09:13:58;;;;;;;;;;;;;;;;;;4181474;28;20018;-66
2024/02/27 09:16:00;;;;;;;;;;;;;;;;;;4181522;28;19959;-66
2024/02/27 09:18:01;;;;;;;;;;;;;;;;;;4181240;28;19928;-66
2024/02/27 09:20:06;;;;;;;;;;;;;;;;;;4181189;28;19924;-66
2024/02/27 09:22:08;;;;;;;;;;;;;;;;;;4181111;28;19925;-66
2024/02/27 09:24:09;;;;;;;;;;;;;;;;;;4181215;28;19924;-66
2024/02/27 09:26:11;;;;;;;;;;;;;;;;;;4181384;28;19920;-67
2024/02/27 09:28:13;;;;;;;;;;;;;;;;;;4181112;28;19924;-67
2024/02/27 09:30:15;;;;;;;;;;;;;;;;;;4181068;28;19927;-66
2024/02/27 09:32:17;;;;;;;;;;;;;;;;;;4181236;28;19928;-66
2024/02/27 09:34:20;;;;;;;;;;;;;;;;;;4206614;28;19930;-67
2024/02/27 09:36:22;;;;;;;;;;;;;;;;;;4214439;28;19920;-66
2024/02/27 09:38:23;;;;;;;;;;;;;;;;;;4214521;28;19950;-66
2024/02/27 09:40:25;;;;;;;;;;;;;;;;;;4214390;28;19956;-67
2024/02/27 09:42:26;;;;;;;;;;;;;;;;;;4194282;28;19927;-66
2024/02/27 09:44:35;;;;;;;;;;;;;;;;;;4180894;28;19925;-67
2024/02/27 09:46:36;;;;;;;;;;;;;;;;;;4163452;28;20039;-67
2024/02/27 09:48:43;;;;;;;;;;;;;;;;;;4181123;28;19920;-66
2024/02/27 09:50:45;;;;;;;;;;;;;;;;;;4180941;28;19927;-66
2024/02/27 09:52:46;;;;;;;;;;;;;;;;;;4180935;28;19921;-66
2024/02/27 09:54:48;;;;;;;;;;;;;;;;;;4180933;28;19921;-67
2024/02/27 09:56:50;;;;;;;;;;;;;;;;;;4181013;28;19947;-66
2024/02/27 09:58:51;;;;;;;;;;;;;;;;;;4180907;28;19920;-67
2024/02/27 10:00:53;;;;;;;;;;;;;;;;;;4180902;28;20295;-66
2024/02/27 10:02:55;;;;;;;;;;;;;;;;;;4180473;28;19925;-66
2024/02/27 10:04:58;;;;;;;;;;;;;;;;;;4180867;28;20414;-66
2024/02/27 10:06:59;;;;;;;;;;;;;;;;;;4181121;28;19974;-66
2024/02/27 10:09:01;;;;;;;;;;;;;;;;;;4180746;28;19920;-66
2024/02/27 10:11:02;;;;;;;;;;;;;;;;;;4180801;28;19921;-67
2024/02/27 10:13:04;;;;;;;;;;;;;;;;;;4163012;28;19925;-66
2024/02/27 10:15:06;;;;;;;;;;;;;;;;;;4180599;28;19948;-66
2024/02/27 10:17:07;;;;;;;;;;;;;;;;;;4180631;28;20475;-66
2024/02/27 10:19:09;;;;;;;;;;;;;;;;;;4180552;28;20368;-66
2024/02/27 10:21:10;;;;;;;;;;;;;;;;;;4180627;28;19924;-67
2024/02/27 10:23:12;;;;;;;;;;;;;;;;;;4180907;28;19920;-62
2024/02/27 10:25:18;;;;;;;;;;;;;;;;;;4180700;28;19931;-62
2024/02/27 10:27:20;;;;;;;;;;;;;;;;;;4180932;28;19924;-62
2024/02/27 10:29:21;;;;;;;;;;;;;;;;;;4186156;28;19921;-62
2024/02/27 10:31:23;;;;;;;;;;;;;;;;;;4214490;28;19927;-62
2024/02/27 10:33:24;;;;;;;;;;;;;;;;;;4213867;28;19924;-61
2024/02/27 10:35:26;;;;;;;;;;;;;;;;;;4196111;28;19958;-62
2024/02/27 10:37:31;;;;;;;;;;;;;;;;;;4214013;28;19963;-62
2024/02/27 10:39:33;;;;;;;;;;;;;;;;;;4180745;28;19927;-61
2024/02/27 10:41:34;;;;;;;;;;;;;;;;;;4180802;28;19921;-62
2024/02/27 10:43:36;;;;;;;;;;;;;;;;;;4181440;28;19921;-62
2024/02/27 10:45:37;;;;;;;;;;;;;;;;;;4189525;28;19957;-62
2024/02/27 10:47:39;;;;;;;;;;;;;;;;;;4193824;28;20260;-62
2024/02/27 10:49:41;;;;;;;;;;;;;;;;;;4186857;28;19921;-62
2024/02/27 10:51:43;;;;;;;;;;;;;;;;;;4190443;28;19962;-62
2024/02/27 10:53:46;;;;;;;;;;;;;;;;;;4194473;28;20019;-62
2024/02/27 10:55:47;;;;;;;;;;;;;;;;;;4196178;28;19925;-62
2024/02/27 10:57:49;;;;;;;;;;;;;;;;;;4193809;28;19921;-62
2024/02/27 10:59:51;;;;;;;;;;;;;;;;;;4185336;28;19928;-61
2024/02/27 11:01:53;;;;;;;;;;;;;;;;;;4190773;28;19959;-62
2024/02/27 11:03:54;;;;;;;;;;;;;;;;;;4172867;28;19931;-63
2024/02/27 11:05:56;;;;;;;;;;;;;;;;;;4186844;28;20008;-62
2024/02/27 11:07:57;;;;;;;;;;;;;;;;;;4194422;28;20394;-62
2024/02/27 11:09:59;;;;;;;;;;;;;;;;;;4199709;28;20276;-62
2024/02/27 11:12:00;;;;;;;;;;;;;;;;;;4199630;28;19929;-62
2024/02/27 11:14:02;;;;;;;;;;;;;;;;;;4198394;28;19930;-63
2024/02/27 11:16:03;;;;;;;;;;;;;;;;;;4199619;28;20371;-62
2024/02/27 11:18:05;;;;;;;;;;;;;;;;;;4199498;28;19921;-61
2024/02/27 11:20:07;;;;;;;;;;;;;;;;;;4199651;28;19920;-62
2024/02/27 11:22:08;;;;;;;;;;;;;;;;;;4184709;28;19921;-61
2024/02/27 11:24:10;;;;;;;;;;;;;;;;;;4194886;28;19932;-62
2024/02/27 11:26:11;;;;;;;;;;;;;;;;;;4192448;28;20386;-61
2024/02/27 11:28:13;;;;;;;;;;;;;;;;;;4195009;28;19924;-62
2024/02/27 11:30:16;;;;;;;;;;;;;;;;;;4198569;28;19920;-62
2024/02/27 11:32:18;;;;;;;;;;;;;;;;;;4198078;28;20014;-62
2024/02/27 11:34:19;;;;;;;;;;;;;;;;;;4193234;28;19920;-62
2024/02/27 11:36:21;;;;;;;;;;;;;;;;;;4184058;28;20376;-62
2024/02/27 11:38:22;;;;;;;;;;;;;;;;;;4171109;28;19927;-62
2024/02/27 11:40:24;;;;;;;;;;;;;;;;;;4183540;28;19967;-62
2024/02/27 11:42:26;;;;;;;;;;;;;;;;;;4192995;28;19974;-62
2024/02/27 11:44:27;;;;;;;;;;;;;;;;;;4199360;28;19920;-63
2024/02/27 11:46:29;;;;;;;;;;;;;;;;;;4197536;28;19921;-61
2024/02/27 11:48:30;;;;;;;;;;;;;;;;;;4197337;28;19924;-62
2024/02/27 11:50:32;;;;;;;;;;;;;;;;;;4199005;28;19927;-62
2024/02/27 11:52:34;;;;;;;;;;;;;;;;;;4198766;28;19921;-61
2024/02/27 11:54:35;;;;;;;;;;;;;;;;;;4198812;28;19928;-62
2024/02/27 11:56:37;;;;;;;;;;;;;;;;;;4196576;28;19924;-61
2024/02/27 11:58:38;;;;;;;;;;;;;;;;;;4185502;28;19931;-61
2024/02/27 12:00:40;;;;;;;;;;;;;;;;;;4193079;28;19921;-62
2024/02/27 12:02:41;;;;;;;;;;;;;;;;;;4191826;28;20441;-63
2024/02/27 12:04:43;;;;;;;;;;;;;;;;;;4193264;28;19928;-61
2024/02/27 12:06:44;;;;;;;;;;;;;;;;;;4183179;28;19927;-62
2024/02/27 12:08:46;;;;;;;;;;;;;;;;;;4187755;28;19920;-61
2024/02/27 12:10:48;;;;;;;;;;;;;;;;;;4190648;28;19931;-62
2024/02/27 12:12:50;;;;;;;;;;;;;;;;;;4198913;28;19927;-62
2024/02/27 12:14:51;;;;;;;;;;;;;;;;;;4190358;28;20319;-61
2024/02/27 12:16:53;;;;;;;;;;;;;;;;;;4187166;28;19921;-61
2024/02/27 12:18:56;;;;;;;;;;;;;;;;;;4185007;28;19924;-62
2024/02/27 12:21:00;;;;;;;;;;;;;;;;;;4192456;28;20020;-62
2024/02/27 12:23:02;;;;;;;;;;;;;;;;;;4208767;28;19919;-61
2024/02/27 12:25:04;;;;;;;;;;;;;;;;;;4184294;28;20320;-61
2024/02/27 12:27:05;;;;;;;;;;;;;;;;;;4188200;28;19924;-62
2024/02/27 12:29:08;;;;;;;;;;;;;;;;;;4186134;28;20334;-61
2024/02/27 12:31:10;;;;;;;;;;;;;;;;;;4190889;28;20292;-62
2024/02/27 12:33:11;;;;;;;;;;;;;;;;;;4197831;28;20379;-62
2024/02/27 12:35:13;;;;;;;;;;;;;;;;;;4189927;28;20368;-62
2024/02/27 12:37:14;;;;;;;;;;;;;;;;;;4190574;28;19924;-61
2024/02/27 12:39:17;;;;;;;;;;;;;;;;;;4198352;28;20298;-61
2024/02/27 12:41:19;;;;;;;;;;;;;;;;;;4194508;28;19927;-61
2024/02/27 12:43:20;;;;;;;;;;;;;;;;;;4167083;28;19944;-61
2024/02/27 12:45:22;;;;;;;;;;;;;;;;;;4181975;28;19925;-62
2024/02/27 12:47:24;;;;;;;;;;;;;;;;;;4181620;28;19920;-62
2024/02/27 12:49:26;;;;;;;;;;;;;;;;;;4181814;28;20622;-61
2024/02/27 12:51:28;;;;;;;;;;;;;;;;;;4181728;28;19928;-62
2024/02/27 12:53:29;;;;;;;;;;;;;;;;;;4181544;28;19960;-61
2024/02/27 12:55:31;;;;;;;;;;;;;;;;;;4181586;28;19928;-61
2024/02/27 12:57:32;;;;;;;;;;;;;;;;;;4181857;28;19928;-61
2024/02/27 12:59:34;;;;;;;;;;;;;;;;;;4181608;28;19959;-62
2024/02/27 13:01:39;;;;;;;;;;;;;;;;;;4181520;28;19944;-61
2024/02/27 13:03:41;;;;;;;;;;;;;;;;;;4163526;28;20320;-61
2024/02/27 13:05:42;;;;;;;;;;;;;;;;;;4181587;28;19966;-61
2024/02/27 13:07:44;;;;;;;;;;;;;;;;;;4180697;28;20364;-61
2024/02/27 13:09:45;;;;;;;;;;;;;;;;;;4181946;28;19971;-61
2024/02/27 13:11:47;;;;;;;;;;;;;;;;;;4183392;28;20362;-61
2024/02/27 13:13:48;;;;;;;;;;;;;;;;;;4181172;28;19944;-61
2024/02/27 13:15:50;;;;;;;;;;;;;;;;;;4181356;28;19928;-61
2024/02/27 13:17:52;;;;;;;;;;;;;;;;;;4181555;28;19928;-61
2024/02/27 13:19:53;;;;;;;;;;;;;;;;;;4214950;28;19924;-61
2024/02/27 13:21:55;;;;;;;;;;;;;;;;;;4204895;28;20294;-62
2024/02/27 13:24:03;;;;;;;;;;;;;;;;;;4197940;28;19920;-61
2024/02/27 13:26:05;;;;;;;;;;;;;;;;;;4183435;28;19997;-61
2024/02/27 13:28:06;;;;;;;;;;;;;;;;;;4181019;28;19974;-61
2024/02/27 13:30:08;;;;;;;;;;;;;;;;;;4181383;28;19924;-61
2024/02/27 13:32:09;;;;;;;;;;;;;;;;;;4164904;28;19921;-61
2024/02/27 13:34:12;;;;;;;;;;;;;;;;;;4181724;28;19924;-61
2024/02/27 13:36:14;;;;;;;;;;;;;;;;;;4181471;28;19924;-61
2024/02/27 13:38:16;;;;;;;;;;;;;;;;;;4186560;28;20287;-61
2024/02/27 13:40:17;;;;;;;;;;;;;;;;;;4180767;28;19932;-61
2024/02/27 13:42:19;;;;;;;;;;;;;;;;;;4180922;28;19928;-61
2024/02/27 13:44:22;;;;;;;;;;;;;;;;;;4180615;28;20011;-61
2024/02/27 13:46:23;;;;;;;;;;;;;;;;;;4181158;28;20291;-61
2024/02/27 13:48:25;;;;;;;;;;;;;;;;;;4187361;28;19924;-61
2024/02/27 13:50:26;;;;;;;;;;;;;;;;;;4184723;28;19924;-63
2024/02/27 13:52:28;;;;;;;;;;;;;;;;;;4181873;28;19921;-62
2024/02/27 13:54:29;;;;;;;;;;;;;;;;;;4189649;28;20443;-61